Flugplatz Halle-Oppin

Für EDAQ sind keine METAR/TAF Berichte vorhanden.
Es werden die Flugwettermeldungen vom Flugplatz Leipzig Halle in 19 km Entfernung angezeigt.

Bericht für EDDP

vom 27.06. um 07:20 UTC

Wind 11 kt aus 320°

Sichtweite 10 km oder mehr

gute Sicht, keine Wolken < 5000 ft, keine CB, keine Wettererscheinungen (CAVOK)

Temperatur 18.0°C

Taupunkt 10.0°C

Luftfeuchtigkeit 59%

Luftdruck 1025 hPa

keine wesentliche Wetteränderung innerhalb den nächsten 2 Stunden zu erwarten

EDDP 270720Z 32011KT 290V350 CAVOK 18/10 Q1025 NOSIG

Prognose für EDDP

vom 27.06. um 00:00 UTC

Zwischen 00:00 UTC und 00:00 UTC

Wind 13 kt aus 330°

Sichtweite 10 km oder mehr

gering bewölkt in 2500 ft


Zwischen 00:00 UTC und 00:00 UTC zeitweise

Wind 15 kt aus 330° in Böen 25 kt


Zwischen 00:00 und 00:00 UTC übergehend zu

Wind 7 kt aus 320°

Sichtweite 10 km oder mehr

gering bewölkt in 2500 ft

TAF EDDP 270500Z 2706/2806 33013KT 9999 FEW025 TEMPO 2710/2717 33015G25KT BECMG 2718/2720 32007KT
Impressum